sensor_id;sensor_type;location;lat;lon;timestamp;P1;durP1;ratioP1;P2;durP2;ratioP2
63016;SDS011;50274;45.640;11.756;2022-07-01T00:01:06;15.63;;;6.18;;
63016;SDS011;50274;45.640;11.756;2022-07-01T00:03:39;15.13;;;6.07;;
63016;SDS011;50274;45.640;11.756;2022-07-01T00:06:04;15.82;;;6.28;;
63016;SDS011;50274;45.640;11.756;2022-07-01T00:08:32;12.43;;;6.45;;
63016;SDS011;50274;45.640;11.756;2022-07-01T00:11:01;14.60;;;6.78;;
63016;SDS011;50274;45.640;11.756;2022-07-01T00:13:32;13.97;;;7.13;;
63016;SDS011;50274;45.640;11.756;2022-07-01T00:16:02;14.45;;;6.55;;
63016;SDS011;50274;45.640;11.756;2022-07-01T00:18:31;11.25;;;6.40;;
63016;SDS011;50274;45.640;11.756;2022-07-01T00:20:59;16.60;;;6.63;;
63016;SDS011;50274;45.640;11.756;2022-07-01T00:23:30;20.35;;;11.68;;
63016;SDS011;50274;45.640;11.756;2022-07-01T00:25:58;16.07;;;8.60;;
63016;SDS011;50274;45.640;11.756;2022-07-01T00:28:24;15.30;;;8.30;;
63016;SDS011;50274;45.640;11.756;2022-07-01T00:30:57;14.68;;;6.65;;
63016;SDS011;50274;45.640;11.756;2022-07-01T00:33:25;13.80;;;7.10;;
63016;SDS011;50274;45.640;11.756;2022-07-01T00:35:56;13.00;;;6.72;;
63016;SDS011;50274;45.640;11.756;2022-07-01T00:38:26;17.87;;;6.97;;
63016;SDS011;50274;45.640;11.756;2022-07-01T00:40:55;12.60;;;6.35;;
63016;SDS011;50274;45.640;11.756;2022-07-01T00:43:23;14.90;;;6.82;;
63016;SDS011;50274;45.640;11.756;2022-07-01T00:45:51;16.02;;;6.88;;
63016;SDS011;50274;45.640;11.756;2022-07-01T00:48:22;14.23;;;7.28;;
63016;SDS011;50274;45.640;11.756;2022-07-01T00:50:50;13.10;;;6.60;;
63016;SDS011;50274;45.640;11.756;2022-07-01T00:53:19;13.60;;;6.78;;
63016;SDS011;50274;45.640;11.756;2022-07-01T00:55:49;15.50;;;7.78;;
63016;SDS011;50274;45.640;11.756;2022-07-01T00:58:18;13.88;;;7.78;;
63016;SDS011;50274;45.640;11.756;2022-07-01T01:00:46;15.70;;;7.75;;
63016;SDS011;50274;45.640;11.756;2022-07-01T01:03:14;11.83;;;7.43;;
63016;SDS011;50274;45.640;11.756;2022-07-01T01:05:45;15.88;;;8.30;;
63016;SDS011;50274;45.640;11.756;2022-07-01T01:08:15;15.30;;;8.07;;
63016;SDS011;50274;45.640;11.756;2022-07-01T01:10:43;15.05;;;8.38;;
63016;SDS011;50274;45.640;11.756;2022-07-01T01:13:12;19.35;;;8.82;;
63016;SDS011;50274;45.640;11.756;2022-07-01T01:15:37;17.30;;;9.00;;
63016;SDS011;50274;45.640;11.756;2022-07-01T01:18:06;15.65;;;8.30;;
63016;SDS011;50274;45.640;11.756;2022-07-01T01:20:35;16.55;;;8.93;;
63016;SDS011;50274;45.640;11.756;2022-07-01T01:23:03;14.00;;;8.50;;
63016;SDS011;50274;45.640;11.756;2022-07-01T01:25:33;13.20;;;8.90;;
63016;SDS011;50274;45.640;11.756;2022-07-01T01:28:02;12.60;;;8.37;;
63016;SDS011;50274;45.640;11.756;2022-07-01T01:30:32;13.23;;;8.98;;
63016;SDS011;50274;45.640;11.756;2022-07-01T01:33:00;15.20;;;8.45;;
63016;SDS011;50274;45.640;11.756;2022-07-01T01:35:29;16.02;;;8.90;;
63016;SDS011;50274;45.640;11.756;2022-07-01T01:37:58;19.60;;;9.82;;
63016;SDS011;50274;45.640;11.756;2022-07-01T01:40:25;16.67;;;8.67;;
63016;SDS011;50274;45.640;11.756;2022-07-01T01:42:51;12.68;;;8.55;;
63016;SDS011;50274;45.640;11.756;2022-07-01T01:45:24;16.15;;;8.15;;
63016;SDS011;50274;45.640;11.756;2022-07-01T01:47:52;19.83;;;10.25;;
63016;SDS011;50274;45.640;11.756;2022-07-01T01:50:20;13.98;;;8.38;;
63016;SDS011;50274;45.640;11.756;2022-07-01T01:52:51;15.03;;;9.23;;
63016;SDS011;50274;45.640;11.756;2022-07-01T01:55:19;13.48;;;8.77;;
63016;SDS011;50274;45.640;11.756;2022-07-01T01:57:47;13.98;;;9.18;;
63016;SDS011;50274;45.640;11.756;2022-07-01T02:00:13;16.13;;;9.95;;
63016;SDS011;50274;45.640;11.756;2022-07-01T02:02:39;15.75;;;8.30;;
63016;SDS011;50274;45.640;11.756;2022-07-01T02:05:05;14.93;;;9.67;;
63016;SDS011;50274;45.640;11.756;2022-07-01T02:07:37;13.48;;;8.57;;
63016;SDS011;50274;45.640;11.756;2022-07-01T02:10:04;13.77;;;8.05;;
63016;SDS011;50274;45.640;11.756;2022-07-01T02:12:30;12.13;;;7.57;;
63016;SDS011;50274;45.640;11.756;2022-07-01T02:14:58;14.40;;;8.90;;
63016;SDS011;50274;45.640;11.756;2022-07-01T02:17:26;13.32;;;8.73;;
63016;SDS011;50274;45.640;11.756;2022-07-01T02:19:54;15.07;;;8.52;;
63016;SDS011;50274;45.640;11.756;2022-07-01T02:22:22;12.13;;;7.53;;
63016;SDS011;50274;45.640;11.756;2022-07-01T02:24:50;16.43;;;8.60;;
63016;SDS011;50274;45.640;11.756;2022-07-01T02:27:19;18.23;;;8.82;;
63016;SDS011;50274;45.640;11.756;2022-07-01T02:29:49;13.85;;;8.65;;
63016;SDS011;50274;45.640;11.756;2022-07-01T02:32:17;16.25;;;8.77;;
63016;SDS011;50274;45.640;11.756;2022-07-01T02:34:48;15.30;;;9.13;;
63016;SDS011;50274;45.640;11.756;2022-07-01T02:37:18;14.80;;;8.03;;
63016;SDS011;50274;45.640;11.756;2022-07-01T02:39:49;14.27;;;7.50;;
63016;SDS011;50274;45.640;11.756;2022-07-01T02:42:21;15.85;;;8.00;;
63016;SDS011;50274;45.640;11.756;2022-07-01T02:44:51;14.32;;;8.20;;
63016;SDS011;50274;45.640;11.756;2022-07-01T02:47:21;14.32;;;8.05;;
63016;SDS011;50274;45.640;11.756;2022-07-01T02:49:49;14.77;;;8.53;;
63016;SDS011;50274;45.640;11.756;2022-07-01T02:52:20;14.27;;;7.63;;
63016;SDS011;50274;45.640;11.756;2022-07-01T02:54:51;15.45;;;7.88;;
63016;SDS011;50274;45.640;11.756;2022-07-01T02:57:19;13.32;;;7.72;;
63016;SDS011;50274;45.640;11.756;2022-07-01T02:59:47;15.65;;;7.65;;
63016;SDS011;50274;45.640;11.756;2022-07-01T03:02:15;16.63;;;7.57;;
63016;SDS011;50274;45.640;11.756;2022-07-01T03:04:45;14.30;;;7.18;;
63016;SDS011;50274;45.640;11.756;2022-07-01T03:07:19;11.98;;;6.72;;
63016;SDS011;50274;45.640;11.756;2022-07-01T03:09:50;14.77;;;7.15;;
63016;SDS011;50274;45.640;11.756;2022-07-01T03:12:15;14.48;;;7.03;;
63016;SDS011;50274;45.640;11.756;2022-07-01T03:14:52;12.03;;;6.30;;
63016;SDS011;50274;45.640;11.756;2022-07-01T03:17:21;15.30;;;6.88;;
63016;SDS011;50274;45.640;11.756;2022-07-01T03:19:50;15.05;;;7.43;;
63016;SDS011;50274;45.640;11.756;2022-07-01T03:22:21;12.35;;;7.28;;
63016;SDS011;50274;45.640;11.756;2022-07-01T03:24:51;15.60;;;7.38;;
63016;SDS011;50274;45.640;11.756;2022-07-01T03:27:20;13.40;;;7.30;;
63016;SDS011;50274;45.640;11.756;2022-07-01T03:29:47;13.88;;;7.40;;
63016;SDS011;50274;45.640;11.756;2022-07-01T03:32:18;12.80;;;6.50;;
63016;SDS011;50274;45.640;11.756;2022-07-01T03:34:49;16.27;;;7.75;;
63016;SDS011;50274;45.640;11.756;2022-07-01T03:37:21;14.45;;;7.93;;
63016;SDS011;50274;45.640;11.756;2022-07-01T03:39:49;18.40;;;7.33;;
63016;SDS011;50274;45.640;11.756;2022-07-01T03:42:22;16.08;;;7.43;;
63016;SDS011;50274;45.640;11.756;2022-07-01T03:44:52;15.77;;;7.20;;
63016;SDS011;50274;45.640;11.756;2022-07-01T03:47:22;15.43;;;7.60;;
63016;SDS011;50274;45.640;11.756;2022-07-01T03:49:56;10.57;;;6.78;;
63016;SDS011;50274;45.640;11.756;2022-07-01T03:52:29;16.23;;;7.77;;
63016;SDS011;50274;45.640;11.756;2022-07-01T03:55:00;13.93;;;7.85;;
63016;SDS011;50274;45.640;11.756;2022-07-01T03:57:30;17.35;;;7.68;;
63016;SDS011;50274;45.640;11.756;2022-07-01T03:59:58;17.02;;;8.00;;
63016;SDS011;50274;45.640;11.756;2022-07-01T04:02:24;15.50;;;7.78;;
63016;SDS011;50274;45.640;11.756;2022-07-01T04:04:57;12.80;;;7.27;;
63016;SDS011;50274;45.640;11.756;2022-07-01T04:07:28;15.15;;;8.63;;
63016;SDS011;50274;45.640;11.756;2022-07-01T04:09:58;13.32;;;7.65;;
63016;SDS011;50274;45.640;11.756;2022-07-01T04:12:29;13.75;;;7.70;;
63016;SDS011;50274;45.640;11.756;2022-07-01T04:15:01;12.65;;;7.55;;
63016;SDS011;50274;45.640;11.756;2022-07-01T04:17:30;14.40;;;7.20;;
63016;SDS011;50274;45.640;11.756;2022-07-01T04:19:56;14.18;;;7.85;;
63016;SDS011;50274;45.640;11.756;2022-07-01T04:22:26;13.43;;;7.55;;
63016;SDS011;50274;45.640;11.756;2022-07-01T04:25:00;11.90;;;7.03;;
63016;SDS011;50274;45.640;11.756;2022-07-01T04:27:31;17.73;;;7.70;;
63016;SDS011;50274;45.640;11.756;2022-07-01T04:29:57;14.83;;;7.67;;
63016;SDS011;50274;45.640;11.756;2022-07-01T04:32:30;15.38;;;7.35;;
63016;SDS011;50274;45.640;11.756;2022-07-01T04:35:01;14.23;;;8.27;;
63016;SDS011;50274;45.640;11.756;2022-07-01T04:37:32;18.23;;;8.20;;
63016;SDS011;50274;45.640;11.756;2022-07-01T04:40:02;13.80;;;7.82;;
63016;SDS011;50274;45.640;11.756;2022-07-01T04:42:36;13.93;;;7.97;;
63016;SDS011;50274;45.640;11.756;2022-07-01T04:45:06;14.45;;;7.20;;
63016;SDS011;50274;45.640;11.756;2022-07-01T04:47:37;12.52;;;7.03;;
63016;SDS011;50274;45.640;11.756;2022-07-01T04:50:13;12.55;;;6.57;;
63016;SDS011;50274;45.640;11.756;2022-07-01T04:52:44;12.85;;;6.65;;
63016;SDS011;50274;45.640;11.756;2022-07-01T04:55:16;12.43;;;6.97;;
63016;SDS011;50274;45.640;11.756;2022-07-01T04:57:44;15.90;;;7.63;;
63016;SDS011;50274;45.640;11.756;2022-07-01T05:00:13;12.35;;;6.70;;
63016;SDS011;50274;45.640;11.756;2022-07-01T05:02:47;10.77;;;6.13;;
63016;SDS011;50274;45.640;11.756;2022-07-01T05:05:18;12.85;;;6.57;;
63016;SDS011;50274;45.640;11.756;2022-07-01T05:07:52;11.97;;;5.87;;
63016;SDS011;50274;45.640;11.756;2022-07-01T05:10:17;12.80;;;6.03;;
63016;SDS011;50274;45.640;11.756;2022-07-01T05:12:48;17.52;;;6.55;;
63016;SDS011;50274;45.640;11.756;2022-07-01T05:15:16;14.27;;;6.35;;
63016;SDS011;50274;45.640;11.756;2022-07-01T05:17:49;13.27;;;5.78;;
63016;SDS011;50274;45.640;11.756;2022-07-01T05:20:38;15.10;;;5.70;;
63016;SDS011;50274;45.640;11.756;2022-07-01T05:23:25;13.82;;;5.35;;
63016;SDS011;50274;45.640;11.756;2022-07-01T05:25:55;14.63;;;6.22;;
63016;SDS011;50274;45.640;11.756;2022-07-01T05:28:26;11.52;;;5.43;;
63016;SDS011;50274;45.640;11.756;2022-07-01T05:30:54;16.02;;;6.38;;
63016;SDS011;50274;45.640;11.756;2022-07-01T05:33:20;14.27;;;5.90;;
63016;SDS011;50274;45.640;11.756;2022-07-01T05:35:53;12.90;;;5.18;;
63016;SDS011;50274;45.640;11.756;2022-07-01T05:38:29;13.93;;;7.50;;
63016;SDS011;50274;45.640;11.756;2022-07-01T05:40:59;13.23;;;5.65;;
63016;SDS011;50274;45.640;11.756;2022-07-01T05:43:29;13.95;;;6.63;;
63016;SDS011;50274;45.640;11.756;2022-07-01T05:45:57;15.07;;;7.27;;
63016;SDS011;50274;45.640;11.756;2022-07-01T05:48:26;13.38;;;7.05;;
63016;SDS011;50274;45.640;11.756;2022-07-01T05:50:54;13.40;;;7.10;;
63016;SDS011;50274;45.640;11.756;2022-07-01T05:53:23;13.07;;;6.60;;
63016;SDS011;50274;45.640;11.756;2022-07-01T05:55:53;15.98;;;7.00;;
63016;SDS011;50274;45.640;11.756;2022-07-01T05:58:23;14.33;;;6.67;;
63016;SDS011;50274;45.640;11.756;2022-07-01T06:00:56;14.18;;;7.20;;
63016;SDS011;50274;45.640;11.756;2022-07-01T06:03:24;18.80;;;9.23;;
63016;SDS011;50274;45.640;11.756;2022-07-01T06:05:53;12.18;;;6.60;;
63016;SDS011;50274;45.640;11.756;2022-07-01T06:08:26;15.27;;;7.13;;
63016;SDS011;50274;45.640;11.756;2022-07-01T06:10:59;14.97;;;6.07;;
63016;SDS011;50274;45.640;11.756;2022-07-01T06:13:27;18.77;;;6.07;;
63016;SDS011;50274;45.640;11.756;2022-07-01T06:15:59;16.58;;;7.55;;
63016;SDS011;50274;45.640;11.756;2022-07-01T06:18:30;17.20;;;6.20;;
63016;SDS011;50274;45.640;11.756;2022-07-01T06:21:03;11.32;;;6.30;;
63016;SDS011;50274;45.640;11.756;2022-07-01T06:23:31;14.90;;;6.97;;
63016;SDS011;50274;45.640;11.756;2022-07-01T06:26:01;13.90;;;6.70;;
63016;SDS011;50274;45.640;11.756;2022-07-01T06:28:32;17.23;;;6.57;;
63016;SDS011;50274;45.640;11.756;2022-07-01T06:31:00;14.30;;;6.10;;
63016;SDS011;50274;45.640;11.756;2022-07-01T06:33:28;10.75;;;5.55;;
63016;SDS011;50274;45.640;11.756;2022-07-01T06:35:59;13.77;;;5.43;;
63016;SDS011;50274;45.640;11.756;2022-07-01T06:38:28;16.00;;;5.88;;
63016;SDS011;50274;45.640;11.756;2022-07-01T06:40:57;13.00;;;5.60;;
63016;SDS011;50274;45.640;11.756;2022-07-01T06:43:44;17.35;;;5.38;;
63016;SDS011;50274;45.640;11.756;2022-07-01T06:46:17;16.50;;;4.57;;
63016;SDS011;50274;45.640;11.756;2022-07-01T06:48:49;8.97;;;4.07;;
63016;SDS011;50274;45.640;11.756;2022-07-01T06:51:17;9.27;;;3.85;;
63016;SDS011;50274;45.640;11.756;2022-07-01T06:53:45;11.60;;;4.80;;
63016;SDS011;50274;45.640;11.756;2022-07-01T06:56:19;13.05;;;4.45;;
63016;SDS011;50274;45.640;11.756;2022-07-01T06:58:47;9.88;;;4.80;;
63016;SDS011;50274;45.640;11.756;2022-07-01T07:01:16;14.73;;;5.10;;
63016;SDS011;50274;45.640;11.756;2022-07-01T07:03:44;15.82;;;5.30;;
63016;SDS011;50274;45.640;11.756;2022-07-01T07:06:12;16.98;;;6.93;;
63016;SDS011;50274;45.640;11.756;2022-07-01T07:08:40;15.20;;;5.68;;
63016;SDS011;50274;45.640;11.756;2022-07-01T07:11:08;16.77;;;5.83;;
63016;SDS011;50274;45.640;11.756;2022-07-01T07:13:42;13.37;;;4.80;;
63016;SDS011;50274;45.640;11.756;2022-07-01T07:16:13;13.45;;;5.22;;
63016;SDS011;50274;45.640;11.756;2022-07-01T07:18:41;12.15;;;4.68;;
63016;SDS011;50274;45.640;11.756;2022-07-01T07:21:12;16.55;;;5.05;;
63016;SDS011;50274;45.640;11.756;2022-07-01T07:23:45;13.25;;;5.53;;
63016;SDS011;50274;45.640;11.756;2022-07-01T07:26:13;13.07;;;5.10;;
63016;SDS011;50274;45.640;11.756;2022-07-01T07:28:41;10.75;;;4.57;;
63016;SDS011;50274;45.640;11.756;2022-07-01T07:31:09;8.43;;;3.58;;
63016;SDS011;50274;45.640;11.756;2022-07-01T07:33:45;9.45;;;3.75;;
63016;SDS011;50274;45.640;11.756;2022-07-01T07:36:16;12.63;;;3.80;;
63016;SDS011;50274;45.640;11.756;2022-07-01T07:38:46;11.07;;;3.70;;
63016;SDS011;50274;45.640;11.756;2022-07-01T07:41:17;10.27;;;3.28;;
63016;SDS011;50274;45.640;11.756;2022-07-01T07:43:48;10.70;;;3.83;;
63016;SDS011;50274;45.640;11.756;2022-07-01T07:46:18;9.52;;;3.50;;
63016;SDS011;50274;45.640;11.756;2022-07-01T07:48:51;11.10;;;3.33;;
63016;SDS011;50274;45.640;11.756;2022-07-01T07:51:22;10.77;;;3.70;;
63016;SDS011;50274;45.640;11.756;2022-07-01T07:53:50;12.50;;;4.55;;
63016;SDS011;50274;45.640;11.756;2022-07-01T07:56:18;9.90;;;3.50;;
63016;SDS011;50274;45.640;11.756;2022-07-01T07:58:46;7.95;;;3.53;;
63016;SDS011;50274;45.640;11.756;2022-07-01T08:01:14;8.43;;;3.38;;
63016;SDS011;50274;45.640;11.756;2022-07-01T08:03:40;10.97;;;3.33;;
63016;SDS011;50274;45.640;11.756;2022-07-01T08:06:13;11.63;;;3.63;;
63016;SDS011;50274;45.640;11.756;2022-07-01T08:08:41;9.05;;;3.10;;
63016;SDS011;50274;45.640;11.756;2022-07-01T08:11:12;10.35;;;3.33;;
63016;SDS011;50274;45.640;11.756;2022-07-01T08:13:40;11.40;;;3.50;;
63016;SDS011;50274;45.640;11.756;2022-07-01T08:16:09;10.20;;;3.40;;
63016;SDS011;50274;45.640;11.756;2022-07-01T08:18:40;10.63;;;3.25;;
63016;SDS011;50274;45.640;11.756;2022-07-01T08:21:08;9.30;;;3.55;;
63016;SDS011;50274;45.640;11.756;2022-07-01T08:23:33;11.65;;;3.30;;
63016;SDS011;50274;45.640;11.756;2022-07-01T08:26:00;11.15;;;3.25;;
63016;SDS011;50274;45.640;11.756;2022-07-01T08:28:28;10.27;;;3.67;;
63016;SDS011;50274;45.640;11.756;2022-07-01T08:30:57;9.40;;;3.35;;
63016;SDS011;50274;45.640;11.756;2022-07-01T08:33:25;10.68;;;3.58;;
63016;SDS011;50274;45.640;11.756;2022-07-01T08:35:53;10.30;;;3.13;;
63016;SDS011;50274;45.640;11.756;2022-07-01T08:38:22;8.60;;;2.90;;
63016;SDS011;50274;45.640;11.756;2022-07-01T08:40:50;12.23;;;3.07;;
63016;SDS011;50274;45.640;11.756;2022-07-01T08:43:16;12.50;;;3.20;;
63016;SDS011;50274;45.640;11.756;2022-07-01T08:45:42;12.13;;;3.45;;
63016;SDS011;50274;45.640;11.756;2022-07-01T08:48:10;11.07;;;3.22;;
63016;SDS011;50274;45.640;11.756;2022-07-01T08:50:39;7.43;;;2.87;;
63016;SDS011;50274;45.640;11.756;2022-07-01T08:53:06;13.52;;;3.50;;
63016;SDS011;50274;45.640;11.756;2022-07-01T08:55:33;10.32;;;3.00;;
63016;SDS011;50274;45.640;11.756;2022-07-01T08:58:18;10.70;;;3.30;;
63016;SDS011;50274;45.640;11.756;2022-07-01T09:00:48;9.32;;;3.42;;
63016;SDS011;50274;45.640;11.756;2022-07-01T09:03:20;11.03;;;3.43;;
63016;SDS011;50274;45.640;11.756;2022-07-01T09:05:51;9.73;;;3.28;;
63016;SDS011;50274;45.640;11.756;2022-07-01T09:08:20;11.10;;;3.00;;
63016;SDS011;50274;45.640;11.756;2022-07-01T09:10:51;10.90;;;3.20;;
63016;SDS011;50274;45.640;11.756;2022-07-01T09:13:20;7.97;;;3.30;;
63016;SDS011;50274;45.640;11.756;2022-07-01T09:15:45;13.80;;;3.50;;
63016;SDS011;50274;45.640;11.756;2022-07-01T09:18:15;10.23;;;3.75;;
63016;SDS011;50274;45.640;11.756;2022-07-01T09:20:45;10.50;;;3.15;;
63016;SDS011;50274;45.640;11.756;2022-07-01T09:23:14;11.23;;;3.20;;
63016;SDS011;50274;45.640;11.756;2022-07-01T09:25:43;13.37;;;3.20;;
63016;SDS011;50274;45.640;11.756;2022-07-01T09:28:14;8.90;;;2.75;;
63016;SDS011;50274;45.640;11.756;2022-07-01T09:30:46;10.05;;;3.10;;
63016;SDS011;50274;45.640;11.756;2022-07-01T09:33:16;11.02;;;3.05;;
63016;SDS011;50274;45.640;11.756;2022-07-01T09:35:47;10.48;;;2.88;;
63016;SDS011;50274;45.640;11.756;2022-07-01T09:38:17;10.30;;;2.97;;
63016;SDS011;50274;45.640;11.756;2022-07-01T09:43:23;11.70;;;3.22;;
63016;SDS011;50274;45.640;11.756;2022-07-01T09:45:51;11.07;;;3.05;;
63016;SDS011;50274;45.640;11.756;2022-07-01T09:48:21;8.63;;;2.78;;
63016;SDS011;50274;45.640;11.756;2022-07-01T09:50:48;10.47;;;3.00;;
63016;SDS011;50274;45.640;11.756;2022-07-01T09:53:17;8.38;;;2.95;;
63016;SDS011;50274;45.640;11.756;2022-07-01T09:55:43;9.00;;;2.72;;
63016;SDS011;50274;45.640;11.756;2022-07-01T09:58:09;11.93;;;3.13;;
63016;SDS011;50274;45.640;11.756;2022-07-01T10:00:36;9.57;;;3.17;;
63016;SDS011;50274;45.640;11.756;2022-07-01T10:03:03;10.85;;;2.78;;
63016;SDS011;50274;45.640;11.756;2022-07-01T10:05:31;16.83;;;3.38;;
63016;SDS011;50274;45.640;11.756;2022-07-01T10:09:11;12.75;;;2.90;;
63016;SDS011;50274;45.640;11.756;2022-07-01T10:14:12;11.50;;;3.23;;
63016;SDS011;50274;45.640;11.756;2022-07-01T10:16:40;12.57;;;3.40;;
63016;SDS011;50274;45.640;11.756;2022-07-01T10:19:25;11.68;;;2.95;;
63016;SDS011;50274;45.640;11.756;2022-07-01T10:21:54;11.98;;;2.90;;
63016;SDS011;50274;45.640;11.756;2022-07-01T10:24:23;7.65;;;2.90;;
63016;SDS011;50274;45.640;11.756;2022-07-01T10:26:50;8.27;;;2.80;;
63016;SDS011;50274;45.640;11.756;2022-07-01T10:34:46;10.57;;;3.50;;
63016;SDS011;50274;45.640;11.756;2022-07-01T10:37:15;9.13;;;3.00;;
63016;SDS011;50274;45.640;11.756;2022-07-01T10:40:15;11.57;;;3.80;;
63016;SDS011;50274;45.640;11.756;2022-07-01T10:45:26;12.10;;;3.47;;
63016;SDS011;50274;45.640;11.756;2022-07-01T10:48:17;8.15;;;3.10;;
63016;SDS011;50274;45.640;11.756;2022-07-01T10:50:52;11.20;;;3.30;;
63016;SDS011;50274;45.640;11.756;2022-07-01T10:53:19;14.63;;;3.43;;
63016;SDS011;50274;45.640;11.756;2022-07-01T10:55:52;16.13;;;3.40;;
63016;SDS011;50274;45.640;11.756;2022-07-01T10:58:20;11.73;;;3.05;;
63016;SDS011;50274;45.640;11.756;2022-07-01T11:01:03;10.40;;;3.50;;
63016;SDS011;50274;45.640;11.756;2022-07-01T11:03:33;14.63;;;3.43;;
63016;SDS011;50274;45.640;11.756;2022-07-01T11:06:07;10.27;;;3.53;;
63016;SDS011;50274;45.640;11.756;2022-07-01T11:08:33;8.85;;;2.97;;
63016;SDS011;50274;45.640;11.756;2022-07-01T11:11:01;9.48;;;2.90;;
63016;SDS011;50274;45.640;11.756;2022-07-01T11:13:30;11.75;;;3.33;;
63016;SDS011;50274;45.640;11.756;2022-07-01T11:15:56;13.17;;;3.13;;
63016;SDS011;50274;45.640;11.756;2022-07-01T11:18:24;11.93;;;3.10;;
63016;SDS011;50274;45.640;11.756;2022-07-01T11:20:50;9.13;;;2.70;;
63016;SDS011;50274;45.640;11.756;2022-07-01T11:23:21;9.57;;;2.72;;
63016;SDS011;50274;45.640;11.756;2022-07-01T11:25:49;10.52;;;2.60;;
63016;SDS011;50274;45.640;11.756;2022-07-01T11:28:17;11.97;;;3.40;;
63016;SDS011;50274;45.640;11.756;2022-07-01T11:30:43;9.63;;;3.15;;
63016;SDS011;50274;45.640;11.756;2022-07-01T11:33:11;10.52;;;3.03;;
63016;SDS011;50274;45.640;11.756;2022-07-01T11:35:39;8.38;;;2.67;;
63016;SDS011;50274;45.640;11.756;2022-07-01T11:38:29;8.38;;;2.58;;
63016;SDS011;50274;45.640;11.756;2022-07-01T11:41:33;10.63;;;2.67;;
63016;SDS011;50274;45.640;11.756;2022-07-01T11:44:02;9.60;;;2.40;;
63016;SDS011;50274;45.640;11.756;2022-07-01T11:46:30;12.40;;;2.47;;
63016;SDS011;50274;45.640;11.756;2022-07-01T11:48:56;9.43;;;2.87;;
63016;SDS011;50274;45.640;11.756;2022-07-01T11:51:24;9.93;;;2.70;;
63016;SDS011;50274;45.640;11.756;2022-07-01T11:53:55;10.18;;;2.95;;
63016;SDS011;50274;45.640;11.756;2022-07-01T11:56:27;12.60;;;2.80;;
63016;SDS011;50274;45.640;11.756;2022-07-01T11:58:55;11.60;;;2.83;;
63016;SDS011;50274;45.640;11.756;2022-07-01T12:01:27;11.47;;;2.90;;
63016;SDS011;50274;45.640;11.756;2022-07-01T12:03:54;9.02;;;2.60;;
63016;SDS011;50274;45.640;11.756;2022-07-01T12:06:22;10.38;;;2.83;;
63016;SDS011;50274;45.640;11.756;2022-07-01T12:08:51;11.98;;;2.90;;
63016;SDS011;50274;45.640;11.756;2022-07-01T12:11:20;9.65;;;2.80;;
63016;SDS011;50274;45.640;11.756;2022-07-01T12:13:49;10.80;;;2.73;;
63016;SDS011;50274;45.640;11.756;2022-07-01T12:16:18;11.32;;;2.90;;
63016;SDS011;50274;45.640;11.756;2022-07-01T12:18:51;7.97;;;2.20;;
63016;SDS011;50274;45.640;11.756;2022-07-01T12:21:21;10.63;;;2.47;;
63016;SDS011;50274;45.640;11.756;2022-07-01T12:24:04;11.98;;;2.75;;
63016;SDS011;50274;45.640;11.756;2022-07-01T12:26:35;11.63;;;2.80;;
63016;SDS011;50274;45.640;11.756;2022-07-01T12:29:12;8.23;;;2.80;;
63016;SDS011;50274;45.640;11.756;2022-07-01T12:31:46;9.07;;;2.47;;
63016;SDS011;50274;45.640;11.756;2022-07-01T12:34:42;9.15;;;2.50;;
63016;SDS011;50274;45.640;11.756;2022-07-01T12:37:12;11.38;;;3.13;;
63016;SDS011;50274;45.640;11.756;2022-07-01T12:39:50;10.97;;;2.40;;
63016;SDS011;50274;45.640;11.756;2022-07-01T12:42:45;11.88;;;2.85;;
63016;SDS011;50274;45.640;11.756;2022-07-01T12:45:13;8.40;;;2.47;;
63016;SDS011;50274;45.640;11.756;2022-07-01T12:47:45;11.25;;;2.60;;
63016;SDS011;50274;45.640;11.756;2022-07-01T12:50:19;9.80;;;2.70;;
63016;SDS011;50274;45.640;11.756;2022-07-01T12:52:56;10.20;;;2.53;;
63016;SDS011;50274;45.640;11.756;2022-07-01T12:55:42;9.57;;;2.72;;
63016;SDS011;50274;45.640;11.756;2022-07-01T12:58:13;11.80;;;3.00;;
63016;SDS011;50274;45.640;11.756;2022-07-01T13:00:41;9.65;;;2.75;;
63016;SDS011;50274;45.640;11.756;2022-07-01T13:03:12;10.70;;;2.80;;
63016;SDS011;50274;45.640;11.756;2022-07-01T13:05:55;12.60;;;3.00;;
63016;SDS011;50274;45.640;11.756;2022-07-01T13:08:22;17.40;;;2.83;;
63016;SDS011;50274;45.640;11.756;2022-07-01T13:10:48;12.65;;;2.58;;
63016;SDS011;50274;45.640;11.756;2022-07-01T13:13:14;9.90;;;2.58;;
63016;SDS011;50274;45.640;11.756;2022-07-01T13:15:44;11.30;;;2.57;;
63016;SDS011;50274;45.640;11.756;2022-07-01T13:18:10;9.73;;;2.78;;
63016;SDS011;50274;45.640;11.756;2022-07-01T13:20:39;9.77;;;2.53;;
63016;SDS011;50274;45.640;11.756;2022-07-01T13:23:05;10.02;;;2.28;;
63016;SDS011;50274;45.640;11.756;2022-07-01T13:25:31;10.57;;;2.50;;
63016;SDS011;50274;45.640;11.756;2022-07-01T13:27:57;13.45;;;2.72;;
63016;SDS011;50274;45.640;11.756;2022-07-01T13:30:23;11.07;;;3.17;;
63016;SDS011;50274;45.640;11.756;2022-07-01T13:32:49;12.63;;;2.93;;
63016;SDS011;50274;45.640;11.756;2022-07-01T13:35:18;10.20;;;2.40;;
63016;SDS011;50274;45.640;11.756;2022-07-01T13:37:45;7.50;;;2.63;;
63016;SDS011;50274;45.640;11.756;2022-07-01T13:40:11;9.90;;;2.78;;
63016;SDS011;50274;45.640;11.756;2022-07-01T13:42:37;11.40;;;2.70;;
63016;SDS011;50274;45.640;11.756;2022-07-01T13:45:04;12.05;;;3.03;;
63016;SDS011;50274;45.640;11.756;2022-07-01T13:47:30;9.27;;;2.95;;
63016;SDS011;50274;45.640;11.756;2022-07-01T13:49:56;10.02;;;2.72;;
63016;SDS011;50274;45.640;11.756;2022-07-01T13:52:22;9.88;;;3.03;;
63016;SDS011;50274;45.640;11.756;2022-07-01T13:54:48;14.20;;;3.37;;
63016;SDS011;50274;45.640;11.756;2022-07-01T13:57:19;13.05;;;3.03;;
63016;SDS011;50274;45.640;11.756;2022-07-01T13:59:48;13.27;;;3.53;;
63016;SDS011;50274;45.640;11.756;2022-07-01T14:02:14;10.70;;;2.95;;
63016;SDS011;50274;45.640;11.756;2022-07-01T14:04:42;12.53;;;3.00;;
63016;SDS011;50274;45.640;11.756;2022-07-01T14:07:10;13.45;;;2.50;;
63016;SDS011;50274;45.640;11.756;2022-07-01T14:09:36;12.35;;;3.03;;
63016;SDS011;50274;45.640;11.756;2022-07-01T14:12:06;13.60;;;3.75;;
63016;SDS011;50274;45.640;11.756;2022-07-01T14:14:35;11.63;;;3.40;;
63016;SDS011;50274;45.640;11.756;2022-07-01T14:17:03;9.57;;;2.30;;
63016;SDS011;50274;45.640;11.756;2022-07-01T14:19:32;11.23;;;2.78;;
63016;SDS011;50274;45.640;11.756;2022-07-01T14:22:01;8.88;;;2.80;;
63016;SDS011;50274;45.640;11.756;2022-07-01T14:24:27;14.15;;;3.33;;
63016;SDS011;50274;45.640;11.756;2022-07-01T14:26:55;15.35;;;3.58;;
63016;SDS011;50274;45.640;11.756;2022-07-01T14:29:23;19.33;;;3.83;;
63016;SDS011;50274;45.640;11.756;2022-07-01T14:31:51;11.18;;;3.60;;
63016;SDS011;50274;45.640;11.756;2022-07-01T14:34:19;11.43;;;3.97;;
63016;SDS011;50274;45.640;11.756;2022-07-01T14:36:47;13.68;;;3.53;;
63016;SDS011;50274;45.640;11.756;2022-07-01T14:39:15;20.35;;;4.72;;
63016;SDS011;50274;45.640;11.756;2022-07-01T14:41:43;13.13;;;4.33;;
63016;SDS011;50274;45.640;11.756;2022-07-01T14:44:16;30.95;;;5.45;;
63016;SDS011;50274;45.640;11.756;2022-07-01T14:46:45;21.90;;;5.65;;
63016;SDS011;50274;45.640;11.756;2022-07-01T14:49:13;20.55;;;6.05;;
63016;SDS011;50274;45.640;11.756;2022-07-01T14:51:44;12.82;;;4.88;;
63016;SDS011;50274;45.640;11.756;2022-07-01T14:54:12;10.67;;;3.60;;